sensor_id;sensor_type;location;lat;lon;timestamp;P1;durP1;ratioP1;P2;durP2;ratioP2
74229;SDS011;62589;12.568;99.958;2022-08-19T00:00:48;3.80;;;0.63;;
74229;SDS011;62589;12.568;99.958;2022-08-19T00:03:15;3.03;;;0.25;;
74229;SDS011;62589;12.568;99.958;2022-08-19T00:05:42;2.22;;;0.28;;
74229;SDS011;62589;12.568;99.958;2022-08-19T00:08:08;1.23;;;0.15;;
74229;SDS011;62589;12.568;99.958;2022-08-19T00:10:35;1.13;;;0.10;;
74229;SDS011;62589;12.568;99.958;2022-08-19T00:13:01;3.45;;;0.35;;
74229;SDS011;62589;12.568;99.958;2022-08-19T00:15:28;3.03;;;0.45;;
74229;SDS011;62589;12.568;99.958;2022-08-19T00:17:54;5.57;;;0.35;;
74229;SDS011;62589;12.568;99.958;2022-08-19T00:20:21;2.20;;;0.40;;
74229;SDS011;62589;12.568;99.958;2022-08-19T00:22:47;3.22;;;0.15;;
74229;SDS011;62589;12.568;99.958;2022-08-19T00:25:14;4.18;;;0.45;;
74229;SDS011;62589;12.568;99.958;2022-08-19T00:27:41;4.15;;;0.50;;
74229;SDS011;62589;12.568;99.958;2022-08-19T00:30:07;1.88;;;0.30;;
74229;SDS011;62589;12.568;99.958;2022-08-19T00:32:35;1.80;;;0.47;;
74229;SDS011;62589;12.568;99.958;2022-08-19T00:35:02;1.88;;;0.30;;
74229;SDS011;62589;12.568;99.958;2022-08-19T00:37:29;1.55;;;0.30;;
74229;SDS011;62589;12.568;99.958;2022-08-19T00:39:55;2.13;;;0.20;;
74229;SDS011;62589;12.568;99.958;2022-08-19T00:42:22;1.42;;;0.30;;
74229;SDS011;62589;12.568;99.958;2022-08-19T00:44:49;1.60;;;0.20;;
74229;SDS011;62589;12.568;99.958;2022-08-19T00:47:15;2.40;;;0.30;;
74229;SDS011;62589;12.568;99.958;2022-08-19T00:49:50;1.65;;;0.20;;
74229;SDS011;62589;12.568;99.958;2022-08-19T00:52:23;5.07;;;0.50;;
74229;SDS011;62589;12.568;99.958;2022-08-19T00:54:54;3.53;;;0.30;;
74229;SDS011;62589;12.568;99.958;2022-08-19T00:57:24;1.40;;;0.20;;
74229;SDS011;62589;12.568;99.958;2022-08-19T01:00:01;2.15;;;0.45;;
74229;SDS011;62589;12.568;99.958;2022-08-19T01:02:31;3.75;;;0.43;;
74229;SDS011;62589;12.568;99.958;2022-08-19T01:04:59;3.75;;;0.30;;
74229;SDS011;62589;12.568;99.958;2022-08-19T01:07:27;2.95;;;0.20;;
74229;SDS011;62589;12.568;99.958;2022-08-19T01:09:54;2.28;;;0.30;;
74229;SDS011;62589;12.568;99.958;2022-08-19T01:12:20;1.08;;;0.20;;
74229;SDS011;62589;12.568;99.958;2022-08-19T01:14:47;2.47;;;0.68;;
74229;SDS011;62589;12.568;99.958;2022-08-19T01:17:14;0.98;;;0.13;;
74229;SDS011;62589;12.568;99.958;2022-08-19T01:19:42;1.85;;;0.40;;
74229;SDS011;62589;12.568;99.958;2022-08-19T01:22:16;2.17;;;0.32;;
74229;SDS011;62589;12.568;99.958;2022-08-19T01:24:56;2.45;;;0.20;;
74229;SDS011;62589;12.568;99.958;2022-08-19T01:27:23;3.53;;;0.30;;
74229;SDS011;62589;12.568;99.958;2022-08-19T01:29:49;1.88;;;0.40;;
74229;SDS011;62589;12.568;99.958;2022-08-19T01:32:16;1.13;;;0.22;;
74229;SDS011;62589;12.568;99.958;2022-08-19T01:34:44;0.98;;;0.25;;
74229;SDS011;62589;12.568;99.958;2022-08-19T01:37:12;3.97;;;0.45;;
74229;SDS011;62589;12.568;99.958;2022-08-19T01:39:40;3.08;;;0.38;;
74229;SDS011;62589;12.568;99.958;2022-08-19T01:42:07;1.05;;;0.20;;
74229;SDS011;62589;12.568;99.958;2022-08-19T01:44:36;0.60;;;0.25;;
74229;SDS011;62589;12.568;99.958;2022-08-19T01:47:04;2.38;;;0.57;;
74229;SDS011;62589;12.568;99.958;2022-08-19T01:49:31;1.08;;;0.20;;
74229;SDS011;62589;12.568;99.958;2022-08-19T01:51:58;1.27;;;0.30;;
74229;SDS011;62589;12.568;99.958;2022-08-19T01:54:26;1.92;;;0.38;;
74229;SDS011;62589;12.568;99.958;2022-08-19T01:56:55;1.95;;;0.22;;
74229;SDS011;62589;12.568;99.958;2022-08-19T01:59:26;1.95;;;0.63;;
74229;SDS011;62589;12.568;99.958;2022-08-19T02:01:53;3.22;;;0.73;;
74229;SDS011;62589;12.568;99.958;2022-08-19T02:04:20;2.00;;;0.25;;
74229;SDS011;62589;12.568;99.958;2022-08-19T02:06:46;1.45;;;0.30;;
74229;SDS011;62589;12.568;99.958;2022-08-19T02:09:13;2.33;;;0.40;;
74229;SDS011;62589;12.568;99.958;2022-08-19T02:11:39;1.85;;;0.30;;
74229;SDS011;62589;12.568;99.958;2022-08-19T02:14:07;1.63;;;0.28;;
74229;SDS011;62589;12.568;99.958;2022-08-19T02:16:35;1.98;;;0.47;;
74229;SDS011;62589;12.568;99.958;2022-08-19T02:19:01;1.98;;;0.50;;
74229;SDS011;62589;12.568;99.958;2022-08-19T02:21:29;1.48;;;0.10;;
74229;SDS011;62589;12.568;99.958;2022-08-19T02:23:56;3.08;;;0.30;;
74229;SDS011;62589;12.568;99.958;2022-08-19T02:26:23;1.15;;;0.40;;
74229;SDS011;62589;12.568;99.958;2022-08-19T02:28:52;1.27;;;0.20;;
74229;SDS011;62589;12.568;99.958;2022-08-19T02:31:20;1.33;;;0.22;;
74229;SDS011;62589;12.568;99.958;2022-08-19T02:33:49;1.25;;;0.17;;
74229;SDS011;62589;12.568;99.958;2022-08-19T02:36:17;1.90;;;0.30;;
74229;SDS011;62589;12.568;99.958;2022-08-19T02:38:44;1.98;;;0.50;;
74229;SDS011;62589;12.568;99.958;2022-08-19T02:41:15;3.35;;;0.45;;
74229;SDS011;62589;12.568;99.958;2022-08-19T02:43:46;2.80;;;0.70;;
74229;SDS011;62589;12.568;99.958;2022-08-19T02:46:15;2.90;;;0.60;;
74229;SDS011;62589;12.568;99.958;2022-08-19T02:48:51;0.85;;;0.30;;
74229;SDS011;62589;12.568;99.958;2022-08-19T02:51:19;1.50;;;0.40;;
74229;SDS011;62589;12.568;99.958;2022-08-19T02:53:48;2.30;;;0.55;;
74229;SDS011;62589;12.568;99.958;2022-08-19T02:56:15;2.13;;;0.22;;
74229;SDS011;62589;12.568;99.958;2022-08-19T02:58:42;1.02;;;0.22;;
74229;SDS011;62589;12.568;99.958;2022-08-19T03:01:10;1.83;;;0.22;;
74229;SDS011;62589;12.568;99.958;2022-08-19T03:03:37;0.93;;;0.10;;
74229;SDS011;62589;12.568;99.958;2022-08-19T03:06:05;1.05;;;0.30;;
74229;SDS011;62589;12.568;99.958;2022-08-19T03:08:40;2.00;;;0.50;;
74229;SDS011;62589;12.568;99.958;2022-08-19T03:13:55;2.10;;;0.50;;
74229;SDS011;62589;12.568;99.958;2022-08-19T03:16:23;1.02;;;0.20;;
74229;SDS011;62589;12.568;99.958;2022-08-19T03:18:50;2.03;;;0.30;;
74229;SDS011;62589;12.568;99.958;2022-08-19T03:21:23;2.50;;;0.40;;
74229;SDS011;62589;12.568;99.958;2022-08-19T03:23:53;2.28;;;0.40;;
74229;SDS011;62589;12.568;99.958;2022-08-19T03:26:21;2.55;;;0.40;;
74229;SDS011;62589;12.568;99.958;2022-08-19T03:28:48;1.85;;;0.50;;
74229;SDS011;62589;12.568;99.958;2022-08-19T03:31:16;2.08;;;0.35;;
74229;SDS011;62589;12.568;99.958;2022-08-19T03:33:45;1.33;;;0.40;;
74229;SDS011;62589;12.568;99.958;2022-08-19T03:36:13;1.92;;;0.40;;
74229;SDS011;62589;12.568;99.958;2022-08-19T03:38:47;1.67;;;0.45;;
74229;SDS011;62589;12.568;99.958;2022-08-19T03:41:16;0.82;;;0.22;;
74229;SDS011;62589;12.568;99.958;2022-08-19T03:43:46;1.42;;;0.20;;
74229;SDS011;62589;12.568;99.958;2022-08-19T03:46:14;0.65;;;0.20;;
74229;SDS011;62589;12.568;99.958;2022-08-19T03:48:46;1.50;;;0.20;;
74229;SDS011;62589;12.568;99.958;2022-08-19T03:51:18;1.48;;;0.15;;
74229;SDS011;62589;12.568;99.958;2022-08-19T03:53:50;1.75;;;0.20;;
74229;SDS011;62589;12.568;99.958;2022-08-19T03:56:17;1.98;;;0.38;;
74229;SDS011;62589;12.568;99.958;2022-08-19T03:58:44;1.92;;;0.30;;
74229;SDS011;62589;12.568;99.958;2022-08-19T04:01:13;1.23;;;0.40;;
74229;SDS011;62589;12.568;99.958;2022-08-19T04:03:41;3.53;;;0.22;;
74229;SDS011;62589;12.568;99.958;2022-08-19T04:06:15;1.48;;;0.25;;
74229;SDS011;62589;12.568;99.958;2022-08-19T04:08:45;0.75;;;0.30;;
74229;SDS011;62589;12.568;99.958;2022-08-19T04:11:14;1.50;;;0.35;;
74229;SDS011;62589;12.568;99.958;2022-08-19T04:13:42;1.08;;;0.30;;
74229;SDS011;62589;12.568;99.958;2022-08-19T04:16:11;1.80;;;0.20;;
74229;SDS011;62589;12.568;99.958;2022-08-19T04:18:38;1.63;;;0.30;;
74229;SDS011;62589;12.568;99.958;2022-08-19T04:21:06;1.08;;;0.20;;
74229;SDS011;62589;12.568;99.958;2022-08-19T04:23:33;1.13;;;0.10;;
74229;SDS011;62589;12.568;99.958;2022-08-19T04:26:01;0.75;;;0.10;;
74229;SDS011;62589;12.568;99.958;2022-08-19T04:28:28;2.85;;;0.50;;
74229;SDS011;62589;12.568;99.958;2022-08-19T04:30:55;2.55;;;0.40;;
74229;SDS011;62589;12.568;99.958;2022-08-19T04:33:22;1.98;;;0.40;;
74229;SDS011;62589;12.568;99.958;2022-08-19T04:35:50;2.58;;;0.50;;
74229;SDS011;62589;12.568;99.958;2022-08-19T04:38:18;2.88;;;0.63;;
74229;SDS011;62589;12.568;99.958;2022-08-19T04:40:49;2.70;;;0.45;;
74229;SDS011;62589;12.568;99.958;2022-08-19T04:43:28;1.23;;;0.52;;
74229;SDS011;62589;12.568;99.958;2022-08-19T04:45:55;2.53;;;0.50;;
74229;SDS011;62589;12.568;99.958;2022-08-19T04:48:22;4.95;;;0.82;;
74229;SDS011;62589;12.568;99.958;2022-08-19T04:50:52;7.05;;;1.58;;
74229;SDS011;62589;12.568;99.958;2022-08-19T04:53:28;6.97;;;1.73;;
74229;SDS011;62589;12.568;99.958;2022-08-19T04:55:56;3.03;;;1.35;;
74229;SDS011;62589;12.568;99.958;2022-08-19T04:58:29;3.95;;;1.63;;
74229;SDS011;62589;12.568;99.958;2022-08-19T05:00:56;3.33;;;1.75;;
74229;SDS011;62589;12.568;99.958;2022-08-19T05:03:25;3.13;;;1.25;;
74229;SDS011;62589;12.568;99.958;2022-08-19T05:05:52;7.30;;;1.00;;
74229;SDS011;62589;12.568;99.958;2022-08-19T05:08:20;3.22;;;0.80;;
74229;SDS011;62589;12.568;99.958;2022-08-19T05:10:48;1.27;;;0.35;;
74229;SDS011;62589;12.568;99.958;2022-08-19T05:13:16;1.33;;;0.30;;
74229;SDS011;62589;12.568;99.958;2022-08-19T05:15:52;3.22;;;0.47;;
74229;SDS011;62589;12.568;99.958;2022-08-19T05:18:20;0.70;;;0.20;;
74229;SDS011;62589;12.568;99.958;2022-08-19T05:20:58;1.45;;;0.38;;
74229;SDS011;62589;12.568;99.958;2022-08-19T05:26:09;3.25;;;1.02;;
74229;SDS011;62589;12.568;99.958;2022-08-19T05:28:36;3.55;;;1.23;;
74229;SDS011;62589;12.568;99.958;2022-08-19T05:31:03;1.42;;;0.55;;
74229;SDS011;62589;12.568;99.958;2022-08-19T05:33:29;2.30;;;0.70;;
74229;SDS011;62589;12.568;99.958;2022-08-19T05:35:56;3.20;;;0.80;;
74229;SDS011;62589;12.568;99.958;2022-08-19T05:38:23;2.42;;;0.70;;
74229;SDS011;62589;12.568;99.958;2022-08-19T05:40:52;2.20;;;0.63;;
74229;SDS011;62589;12.568;99.958;2022-08-19T05:43:18;0.85;;;0.35;;
74229;SDS011;62589;12.568;99.958;2022-08-19T05:45:45;1.40;;;0.50;;
74229;SDS011;62589;12.568;99.958;2022-08-19T05:48:12;0.95;;;0.25;;
74229;SDS011;62589;12.568;99.958;2022-08-19T05:50:39;3.20;;;0.32;;
74229;SDS011;62589;12.568;99.958;2022-08-19T05:53:07;0.93;;;0.20;;
74229;SDS011;62589;12.568;99.958;2022-08-19T05:55:34;2.38;;;0.40;;
74229;SDS011;62589;12.568;99.958;2022-08-19T05:58:03;3.03;;;0.28;;
74229;SDS011;62589;12.568;99.958;2022-08-19T06:00:33;5.18;;;0.50;;
74229;SDS011;62589;12.568;99.958;2022-08-19T06:03:00;2.00;;;0.60;;
74229;SDS011;62589;12.568;99.958;2022-08-19T06:05:29;2.05;;;0.30;;
74229;SDS011;62589;12.568;99.958;2022-08-19T06:07:56;2.03;;;0.30;;
74229;SDS011;62589;12.568;99.958;2022-08-19T06:10:24;2.08;;;0.35;;
74229;SDS011;62589;12.568;99.958;2022-08-19T06:12:51;1.95;;;0.30;;
74229;SDS011;62589;12.568;99.958;2022-08-19T06:15:19;1.73;;;0.20;;
74229;SDS011;62589;12.568;99.958;2022-08-19T06:17:51;2.58;;;0.30;;
74229;SDS011;62589;12.568;99.958;2022-08-19T06:20:17;3.10;;;0.20;;
74229;SDS011;62589;12.568;99.958;2022-08-19T06:22:45;1.90;;;0.32;;
74229;SDS011;62589;12.568;99.958;2022-08-19T06:25:15;2.67;;;0.32;;
74229;SDS011;62589;12.568;99.958;2022-08-19T06:27:42;1.08;;;0.30;;
74229;SDS011;62589;12.568;99.958;2022-08-19T06:30:10;4.32;;;0.47;;
74229;SDS011;62589;12.568;99.958;2022-08-19T06:32:37;1.45;;;0.35;;
74229;SDS011;62589;12.568;99.958;2022-08-19T06:35:04;1.90;;;0.30;;
74229;SDS011;62589;12.568;99.958;2022-08-19T06:37:31;1.73;;;0.20;;
74229;SDS011;62589;12.568;99.958;2022-08-19T06:39:58;3.63;;;0.52;;
74229;SDS011;62589;12.568;99.958;2022-08-19T06:42:24;1.38;;;0.30;;
74229;SDS011;62589;12.568;99.958;2022-08-19T06:44:50;1.73;;;0.30;;
74229;SDS011;62589;12.568;99.958;2022-08-19T06:47:17;2.38;;;0.30;;
74229;SDS011;62589;12.568;99.958;2022-08-19T06:49:45;1.35;;;0.20;;
74229;SDS011;62589;12.568;99.958;2022-08-19T06:52:12;1.80;;;0.20;;
74229;SDS011;62589;12.568;99.958;2022-08-19T06:54:40;2.05;;;0.20;;
74229;SDS011;62589;12.568;99.958;2022-08-19T06:57:07;4.22;;;0.47;;
74229;SDS011;62589;12.568;99.958;2022-08-19T06:59:38;4.10;;;0.75;;
74229;SDS011;62589;12.568;99.958;2022-08-19T07:02:06;2.70;;;0.35;;
74229;SDS011;62589;12.568;99.958;2022-08-19T07:04:33;3.20;;;0.70;;
74229;SDS011;62589;12.568;99.958;2022-08-19T07:07:04;1.48;;;0.40;;
74229;SDS011;62589;12.568;99.958;2022-08-19T07:09:36;3.08;;;0.30;;
74229;SDS011;62589;12.568;99.958;2022-08-19T07:12:04;2.40;;;0.38;;
74229;SDS011;62589;12.568;99.958;2022-08-19T07:14:32;4.57;;;0.30;;
74229;SDS011;62589;12.568;99.958;2022-08-19T07:17:05;1.05;;;0.28;;
74229;SDS011;62589;12.568;99.958;2022-08-19T07:19:32;1.33;;;0.47;;
74229;SDS011;62589;12.568;99.958;2022-08-19T07:22:00;1.98;;;0.40;;
74229;SDS011;62589;12.568;99.958;2022-08-19T07:24:29;2.20;;;0.43;;
74229;SDS011;62589;12.568;99.958;2022-08-19T07:26:57;2.83;;;0.45;;
74229;SDS011;62589;12.568;99.958;2022-08-19T07:29:29;2.60;;;0.70;;
74229;SDS011;62589;12.568;99.958;2022-08-19T07:31:58;2.58;;;0.30;;
74229;SDS011;62589;12.568;99.958;2022-08-19T07:34:27;2.80;;;0.50;;
74229;SDS011;62589;12.568;99.958;2022-08-19T07:36:55;2.10;;;0.30;;
74229;SDS011;62589;12.568;99.958;2022-08-19T07:39:26;3.53;;;0.28;;
74229;SDS011;62589;12.568;99.958;2022-08-19T07:41:56;2.80;;;0.28;;
74229;SDS011;62589;12.568;99.958;2022-08-19T07:44:23;1.90;;;0.55;;
74229;SDS011;62589;12.568;99.958;2022-08-19T07:46:52;2.95;;;0.40;;
74229;SDS011;62589;12.568;99.958;2022-08-19T07:49:21;1.20;;;0.22;;
74229;SDS011;62589;12.568;99.958;2022-08-19T07:51:59;0.82;;;0.20;;
74229;SDS011;62589;12.568;99.958;2022-08-19T07:54:29;1.58;;;0.40;;
74229;SDS011;62589;12.568;99.958;2022-08-19T07:56:59;0.38;;;0.10;;
74229;SDS011;62589;12.568;99.958;2022-08-19T07:59:27;1.15;;;0.15;;
74229;SDS011;62589;12.568;99.958;2022-08-19T08:01:55;2.13;;;0.28;;
74229;SDS011;62589;12.568;99.958;2022-08-19T08:04:23;2.58;;;0.40;;
74229;SDS011;62589;12.568;99.958;2022-08-19T08:07:01;2.80;;;0.60;;
74229;SDS011;62589;12.568;99.958;2022-08-19T08:09:41;3.72;;;0.50;;
74229;SDS011;62589;12.568;99.958;2022-08-19T08:12:11;4.00;;;0.80;;
74229;SDS011;62589;12.568;99.958;2022-08-19T08:14:42;2.05;;;0.68;;
74229;SDS011;62589;12.568;99.958;2022-08-19T08:17:11;2.10;;;0.57;;
74229;SDS011;62589;12.568;99.958;2022-08-19T08:19:39;1.92;;;0.65;;
74229;SDS011;62589;12.568;99.958;2022-08-19T08:22:06;1.23;;;0.40;;
74229;SDS011;62589;12.568;99.958;2022-08-19T08:24:35;1.40;;;0.30;;
74229;SDS011;62589;12.568;99.958;2022-08-19T08:27:01;1.60;;;0.30;;
74229;SDS011;62589;12.568;99.958;2022-08-19T08:29:29;2.38;;;0.52;;
74229;SDS011;62589;12.568;99.958;2022-08-19T08:31:56;2.85;;;0.60;;
74229;SDS011;62589;12.568;99.958;2022-08-19T08:34:23;3.60;;;0.38;;
74229;SDS011;62589;12.568;99.958;2022-08-19T08:36:49;3.08;;;0.60;;
74229;SDS011;62589;12.568;99.958;2022-08-19T08:39:18;1.42;;;0.30;;
74229;SDS011;62589;12.568;99.958;2022-08-19T08:41:50;1.52;;;0.30;;
74229;SDS011;62589;12.568;99.958;2022-08-19T08:47:18;1.25;;;0.20;;
74229;SDS011;62589;12.568;99.958;2022-08-19T08:52:32;1.25;;;0.40;;
74229;SDS011;62589;12.568;99.958;2022-08-19T08:55:05;1.98;;;0.40;;
74229;SDS011;62589;12.568;99.958;2022-08-19T08:57:37;0.95;;;0.20;;
74229;SDS011;62589;12.568;99.958;2022-08-19T09:00:28;1.27;;;0.30;;
74229;SDS011;62589;12.568;99.958;2022-08-19T09:02:57;1.20;;;0.20;;
74229;SDS011;62589;12.568;99.958;2022-08-19T09:05:32;1.45;;;0.30;;
74229;SDS011;62589;12.568;99.958;2022-08-19T09:11:00;0.60;;;0.00;;
74229;SDS011;62589;12.568;99.958;2022-08-19T09:16:30;2.03;;;0.20;;
74229;SDS011;62589;12.568;99.958;2022-08-19T09:18:58;1.08;;;0.40;;
74229;SDS011;62589;12.568;99.958;2022-08-19T09:21:28;1.08;;;0.20;;
74229;SDS011;62589;12.568;99.958;2022-08-19T09:23:55;0.55;;;0.10;;
74229;SDS011;62589;12.568;99.958;2022-08-19T09:26:23;0.63;;;0.10;;
74229;SDS011;62589;12.568;99.958;2022-08-19T09:28:51;1.17;;;0.20;;
74229;SDS011;62589;12.568;99.958;2022-08-19T09:31:23;1.10;;;0.17;;
74229;SDS011;62589;12.568;99.958;2022-08-19T09:33:52;1.25;;;0.50;;
74229;SDS011;62589;12.568;99.958;2022-08-19T09:36:22;1.20;;;0.20;;
74229;SDS011;62589;12.568;99.958;2022-08-19T09:38:51;0.40;;;0.22;;
74229;SDS011;62589;12.568;99.958;2022-08-19T09:41:20;0.85;;;0.10;;
74229;SDS011;62589;12.568;99.958;2022-08-19T09:43:50;2.17;;;0.17;;
74229;SDS011;62589;12.568;99.958;2022-08-19T09:46:19;2.08;;;0.30;;
74229;SDS011;62589;12.568;99.958;2022-08-19T09:48:49;1.13;;;0.10;;
74229;SDS011;62589;12.568;99.958;2022-08-19T09:51:18;1.10;;;0.10;;
74229;SDS011;62589;12.568;99.958;2022-08-19T09:53:48;0.80;;;0.20;;
74229;SDS011;62589;12.568;99.958;2022-08-19T09:56:20;0.95;;;0.15;;
74229;SDS011;62589;12.568;99.958;2022-08-19T09:58:47;0.88;;;0.28;;
74229;SDS011;62589;12.568;99.958;2022-08-19T10:01:18;0.88;;;0.20;;
74229;SDS011;62589;12.568;99.958;2022-08-19T10:03:48;1.58;;;0.25;;
74229;SDS011;62589;12.568;99.958;2022-08-19T10:06:16;0.60;;;0.10;;
74229;SDS011;62589;12.568;99.958;2022-08-19T10:08:43;1.73;;;0.13;;
74229;SDS011;62589;12.568;99.958;2022-08-19T10:11:10;1.38;;;0.30;;
74229;SDS011;62589;12.568;99.958;2022-08-19T10:13:36;2.33;;;0.20;;
74229;SDS011;62589;12.568;99.958;2022-08-19T10:16:04;0.93;;;0.20;;
74229;SDS011;62589;12.568;99.958;2022-08-19T10:18:33;1.80;;;0.17;;
74229;SDS011;62589;12.568;99.958;2022-08-19T10:21:05;1.70;;;0.60;;
74229;SDS011;62589;12.568;99.958;2022-08-19T10:23:34;2.80;;;0.20;;
74229;SDS011;62589;12.568;99.958;2022-08-19T10:26:05;1.92;;;0.20;;
74229;SDS011;62589;12.568;99.958;2022-08-19T10:28:33;2.63;;;0.30;;
74229;SDS011;62589;12.568;99.958;2022-08-19T10:31:05;1.75;;;0.40;;
74229;SDS011;62589;12.568;99.958;2022-08-19T10:33:35;0.85;;;0.30;;
74229;SDS011;62589;12.568;99.958;2022-08-19T10:36:04;1.85;;;0.30;;
74229;SDS011;62589;12.568;99.958;2022-08-19T10:38:35;1.25;;;0.40;;
74229;SDS011;62589;12.568;99.958;2022-08-19T10:41:10;1.38;;;0.20;;
74229;SDS011;62589;12.568;99.958;2022-08-19T10:43:39;1.13;;;0.28;;
74229;SDS011;62589;12.568;99.958;2022-08-19T10:46:07;1.15;;;0.60;;
74229;SDS011;62589;12.568;99.958;2022-08-19T10:48:35;2.28;;;0.35;;
74229;SDS011;62589;12.568;99.958;2022-08-19T10:51:02;2.50;;;0.35;;
74229;SDS011;62589;12.568;99.958;2022-08-19T10:53:41;1.15;;;0.20;;
74229;SDS011;62589;12.568;99.958;2022-08-19T10:56:07;1.20;;;0.20;;
74229;SDS011;62589;12.568;99.958;2022-08-19T10:58:48;2.05;;;0.28;;
74229;SDS011;62589;12.568;99.958;2022-08-19T11:01:14;2.78;;;0.52;;
74229;SDS011;62589;12.568;99.958;2022-08-19T11:03:41;0.93;;;0.20;;
74229;SDS011;62589;12.568;99.958;2022-08-19T11:06:07;1.65;;;0.40;;
74229;SDS011;62589;12.568;99.958;2022-08-19T11:08:35;1.00;;;0.32;;
74229;SDS011;62589;12.568;99.958;2022-08-19T11:11:03;0.90;;;0.40;;
74229;SDS011;62589;12.568;99.958;2022-08-19T11:13:31;1.30;;;0.30;;
74229;SDS011;62589;12.568;99.958;2022-08-19T11:16:00;1.05;;;0.30;;
74229;SDS011;62589;12.568;99.958;2022-08-19T11:18:30;0.63;;;0.40;;
74229;SDS011;62589;12.568;99.958;2022-08-19T11:21:04;2.13;;;0.45;;
74229;SDS011;62589;12.568;99.958;2022-08-19T11:23:33;5.30;;;0.50;;
74229;SDS011;62589;12.568;99.958;2022-08-19T11:25:59;2.38;;;0.63;;
74229;SDS011;62589;12.568;99.958;2022-08-19T11:28:26;3.78;;;0.60;;
74229;SDS011;62589;12.568;99.958;2022-08-19T11:30:54;2.10;;;0.50;;
74229;SDS011;62589;12.568;99.958;2022-08-19T11:33:20;4.40;;;1.35;;
74229;SDS011;62589;12.568;99.958;2022-08-19T11:35:47;1.38;;;0.73;;
74229;SDS011;62589;12.568;99.958;2022-08-19T11:38:14;3.13;;;1.02;;
74229;SDS011;62589;12.568;99.958;2022-08-19T11:40:40;5.05;;;1.60;;
74229;SDS011;62589;12.568;99.958;2022-08-19T11:43:07;3.58;;;2.00;;
74229;SDS011;62589;12.568;99.958;2022-08-19T11:45:34;5.22;;;2.10;;
74229;SDS011;62589;12.568;99.958;2022-08-19T11:48:02;4.97;;;2.45;;
74229;SDS011;62589;12.568;99.958;2022-08-19T11:50:28;6.93;;;1.95;;
74229;SDS011;62589;12.568;99.958;2022-08-19T11:52:56;4.68;;;2.05;;
74229;SDS011;62589;12.568;99.958;2022-08-19T11:55:23;4.68;;;2.30;;
74229;SDS011;62589;12.568;99.958;2022-08-19T11:57:52;6.20;;;2.80;;
74229;SDS011;62589;12.568;99.958;2022-08-19T12:00:19;6.00;;;2.20;;
74229;SDS011;62589;12.568;99.958;2022-08-19T12:02:45;7.65;;;2.03;;
74229;SDS011;62589;12.568;99.958;2022-08-19T12:05:11;7.78;;;2.53;;
74229;SDS011;62589;12.568;99.958;2022-08-19T12:07:38;5.07;;;2.35;;
74229;SDS011;62589;12.568;99.958;2022-08-19T12:10:06;4.00;;;1.90;;
74229;SDS011;62589;12.568;99.958;2022-08-19T12:12:32;5.15;;;2.22;;
74229;SDS011;62589;12.568;99.958;2022-08-19T12:14:59;4.57;;;1.88;;
74229;SDS011;62589;12.568;99.958;2022-08-19T12:17:25;5.85;;;2.03;;
74229;SDS011;62589;12.568;99.958;2022-08-19T12:19:52;3.10;;;1.75;;
74229;SDS011;62589;12.568;99.958;2022-08-19T12:22:19;5.30;;;1.70;;
74229;SDS011;62589;12.568;99.958;2022-08-19T12:24:46;5.22;;;2.30;;
74229;SDS011;62589;12.568;99.958;2022-08-19T12:27:15;3.88;;;2.30;;
74229;SDS011;62589;12.568;99.958;2022-08-19T12:29:42;6.28;;;2.65;;
74229;SDS011;62589;12.568;99.958;2022-08-19T12:32:08;6.63;;;2.78;;
74229;SDS011;62589;12.568;99.958;2022-08-19T12:34:35;4.60;;;2.47;;
74229;SDS011;62589;12.568;99.958;2022-08-19T12:37:03;5.43;;;2.60;;
74229;SDS011;62589;12.568;99.958;2022-08-19T12:39:38;3.67;;;2.38;;
74229;SDS011;62589;12.568;99.958;2022-08-19T12:42:07;7.90;;;2.08;;
74229;SDS011;62589;12.568;99.958;2022-08-19T12:44:36;4.38;;;1.83;;
74229;SDS011;62589;12.568;99.958;2022-08-19T12:47:05;4.50;;;2.47;;
74229;SDS011;62589;12.568;99.958;2022-08-19T12:49:32;5.13;;;2.20;;
74229;SDS011;62589;12.568;99.958;2022-08-19T12:52:00;5.47;;;2.20;;
74229;SDS011;62589;12.568;99.958;2022-08-19T12:54:27;6.57;;;2.17;;
74229;SDS011;62589;12.568;99.958;2022-08-19T12:56:56;4.80;;;2.40;;
74229;SDS011;62589;12.568;99.958;2022-08-19T12:59:23;4.68;;;2.15;;
74229;SDS011;62589;12.568;99.958;2022-08-19T13:01:50;4.82;;;2.15;;
74229;SDS011;62589;12.568;99.958;2022-08-19T13:04:17;4.78;;;2.15;;
74229;SDS011;62589;12.568;99.958;2022-08-19T13:06:44;5.65;;;1.80;;
74229;SDS011;62589;12.568;99.958;2022-08-19T13:09:10;3.90;;;2.10;;
74229;SDS011;62589;12.568;99.958;2022-08-19T13:13:54;4.32;;;2.00;;
74229;SDS011;62589;12.568;99.958;2022-08-19T13:16:23;3.50;;;2.05;;
74229;SDS011;62589;12.568;99.958;2022-08-19T13:18:53;5.72;;;2.05;;
74229;SDS011;62589;12.568;99.958;2022-08-19T13:21:22;4.60;;;2.30;;
74229;SDS011;62589;12.568;99.958;2022-08-19T13:23:51;3.05;;;1.98;;
74229;SDS011;62589;12.568;99.958;2022-08-19T13:26:18;6.68;;;2.13;;
74229;SDS011;62589;12.568;99.958;2022-08-19T13:28:45;4.40;;;2.40;;
74229;SDS011;62589;12.568;99.958;2022-08-19T13:31:25;7.22;;;2.25;;
74229;SDS011;62589;12.568;99.958;2022-08-19T13:34:05;5.03;;;2.13;;
74229;SDS011;62589;12.568;99.958;2022-08-19T13:36:32;5.80;;;1.88;;
74229;SDS011;62589;12.568;99.958;2022-08-19T13:38:59;3.42;;;2.05;;
74229;SDS011;62589;12.568;99.958;2022-08-19T13:41:26;4.95;;;1.90;;
74229;SDS011;62589;12.568;99.958;2022-08-19T13:43:53;4.45;;;2.22;;
74229;SDS011;62589;12.568;99.958;2022-08-19T13:46:19;4.18;;;2.03;;
74229;SDS011;62589;12.568;99.958;2022-08-19T13:48:46;3.90;;;2.22;;
74229;SDS011;62589;12.568;99.958;2022-08-19T13:51:14;5.55;;;1.85;;
74229;SDS011;62589;12.568;99.958;2022-08-19T13:53:42;7.05;;;2.20;;
74229;SDS011;62589;12.568;99.958;2022-08-19T13:56:11;5.75;;;2.00;;
74229;SDS011;62589;12.568;99.958;2022-08-19T13:58:39;5.97;;;2.10;;
74229;SDS011;62589;12.568;99.958;2022-08-19T14:01:06;7.28;;;1.60;;
74229;SDS011;62589;12.568;99.958;2022-08-19T14:03:33;4.88;;;2.05;;
74229;SDS011;62589;12.568;99.958;2022-08-19T14:06:01;6.30;;;2.60;;
74229;SDS011;62589;12.568;99.958;2022-08-19T14:08:28;7.43;;;2.47;;
74229;SDS011;62589;12.568;99.958;2022-08-19T14:10:57;7.60;;;2.45;;
74229;SDS011;62589;12.568;99.958;2022-08-19T14:13:24;6.90;;;2.65;;
74229;SDS011;62589;12.568;99.958;2022-08-19T14:15:51;9.98;;;2.78;;
74229;SDS011;62589;12.568;99.958;2022-08-19T14:18:19;3.03;;;2.15;;
74229;SDS011;62589;12.568;99.958;2022-08-19T14:20:47;2.92;;;2.00;;
74229;SDS011;62589;12.568;99.958;2022-08-19T14:23:14;6.70;;;1.67;;
74229;SDS011;62589;12.568;99.958;2022-08-19T14:25:41;4.53;;;1.55;;
74229;SDS011;62589;12.568;99.958;2022-08-19T14:28:07;4.25;;;1.90;;
74229;SDS011;62589;12.568;99.958;2022-08-19T14:30:35;5.65;;;1.70;;
74229;SDS011;62589;12.568;99.958;2022-08-19T14:33:03;6.22;;;1.88;;
74229;SDS011;62589;12.568;99.958;2022-08-19T14:35:31;7.50;;;2.08;;
74229;SDS011;62589;12.568;99.958;2022-08-19T14:38:00;3.95;;;1.52;;
74229;SDS011;62589;12.568;99.958;2022-08-19T14:40:29;7.28;;;1.88;;
74229;SDS011;62589;12.568;99.958;2022-08-19T14:42:58;6.72;;;1.40;;
74229;SDS011;62589;12.568;99.958;2022-08-19T14:45:29;10.70;;;1.85;;
74229;SDS011;62589;12.568;99.958;2022-08-19T14:47:58;6.15;;;1.90;;
74229;SDS011;62589;12.568;99.958;2022-08-19T14:50:25;2.60;;;1.60;;
74229;SDS011;62589;12.568;99.958;2022-08-19T14:53:04;6.50;;;2.22;;
74229;SDS011;62589;12.568;99.958;2022-08-19T14:55:33;5.88;;;1.73;;
74229;SDS011;62589;12.568;99.958;2022-08-19T14:57:59;8.93;;;1.80;;
74229;SDS011;62589;12.568;99.958;2022-08-19T15:00:27;5.32;;;2.10;;